createdAt,value
2023-04-19T00:03:40.068Z,101073.73
2023-04-19T00:18:43.431Z,101036.20
2023-04-19T00:33:47.005Z,101017.40
2023-04-19T00:48:50.928Z,101003.84
2023-04-19T01:03:54.225Z,100987.22
2023-04-19T01:18:57.359Z,100983.36
2023-04-19T01:34:00.850Z,100965.48
2023-04-19T01:49:04.539Z,100951.55
2023-04-19T02:04:08.287Z,100949.05
2023-04-19T02:19:11.581Z,100932.13
2023-04-19T02:34:15.494Z,100935.64
2023-04-19T02:49:19.922Z,100899.33
2023-04-19T03:04:23.653Z,100858.73
2023-04-19T03:19:27.182Z,100864.73
2023-04-19T03:34:30.312Z,100848.84
2023-04-19T03:49:33.487Z,100831.27
2023-04-19T04:04:41.484Z,100829.22
2023-04-19T04:19:45.008Z,100806.91
2023-04-19T04:34:48.724Z,100803.34
2023-04-19T04:49:59.997Z,100809.60
2023-04-19T05:05:03.650Z,100804.17
2023-04-19T05:20:07.467Z,100797.56
2023-04-19T05:35:12.391Z,100780.05
2023-04-19T05:50:18.233Z,100769.42
2023-04-19T06:05:27.403Z,100755.05
2023-04-19T06:20:32.664Z,100749.29
2023-04-19T06:35:36.012Z,100728.85
2023-04-19T06:50:39.179Z,100737.39
2023-04-19T07:05:42.356Z,100734.05
2023-04-19T07:20:48.910Z,100729.52
2023-04-19T07:35:52.434Z,100729.31
2023-04-19T07:50:55.594Z,100716.56
2023-04-19T08:06:01.384Z,100734.29
2023-04-19T08:21:05.294Z,100741.45
2023-04-19T08:36:09.525Z,100739.64
2023-04-19T08:51:15.373Z,100731.31
2023-04-19T09:06:18.939Z,100722.73
2023-04-19T09:21:30.157Z,100716.62
2023-04-19T09:36:33.998Z,100711.71
2023-04-19T09:51:50.751Z,100737.34
2023-04-19T10:07:24.480Z,100745.56
2023-04-19T10:22:19.291Z,100750.71
2023-04-19T10:37:25.256Z,100749.98
2023-04-19T10:52:30.009Z,100745.86
2023-04-19T11:07:39.965Z,100743.48
2023-04-19T11:22:46.657Z,100752.41
2023-04-19T11:37:50.822Z,100761.27
2023-04-19T11:52:54.208Z,100755.98
2023-04-19T12:08:04.987Z,100763.23
2023-04-19T12:23:11.373Z,100783.22
2023-04-19T12:38:14.718Z,100786.86
2023-04-19T12:53:18.227Z,100793.58
2023-04-19T13:08:30.955Z,100782.95
2023-04-19T13:23:45.504Z,100785.34
2023-04-19T13:38:49.610Z,100802.39
2023-04-19T13:53:55.445Z,100804.71
2023-04-19T14:08:59.446Z,100792.00
2023-04-19T14:24:04.336Z,100799.84
2023-04-19T14:39:09.271Z,100791.98
2023-04-19T14:54:13.514Z,100780.41
2023-04-19T15:09:18.392Z,100773.43
2023-04-19T15:24:22.762Z,100770.41
2023-04-19T15:39:27.586Z,100759.47
2023-04-19T15:54:32.312Z,100748.27
2023-04-19T16:09:35.721Z,100738.81
2023-04-19T16:24:39.053Z,100746.30
2023-04-19T16:39:42.388Z,100748.71
2023-04-19T16:54:45.522Z,100749.06
2023-04-19T17:09:48.767Z,100758.77
2023-04-19T17:24:52.237Z,100795.98
2023-04-19T17:39:55.804Z,100837.05
2023-04-19T17:54:59.114Z,100867.44
2023-04-19T18:10:04.171Z,100905.98
2023-04-19T18:25:08.095Z,100863.66
2023-04-19T18:40:11.876Z,100824.15
2023-04-19T18:55:16.317Z,100860.63
2023-04-19T19:10:22.305Z,100885.64
2023-04-19T19:25:29.951Z,100878.29
2023-04-19T19:40:40.819Z,100869.06
2023-04-19T19:56:00.592Z,100867.06
2023-04-19T20:11:04.148Z,100879.19
2023-04-19T20:26:07.635Z,100877.48
2023-04-19T20:41:12.176Z,100871.77
2023-04-19T20:56:17.294Z,100879.54
2023-04-19T21:11:21.190Z,100895.83
2023-04-19T21:26:24.292Z,100899.92
2023-04-19T21:41:27.514Z,100909.34
2023-04-19T21:56:30.557Z,100917.84
2023-04-19T22:11:36.662Z,100924.49
2023-04-19T22:26:39.692Z,100920.41
2023-04-19T22:41:42.855Z,100916.74
2023-04-19T22:56:45.992Z,100907.64
2023-04-19T23:11:49.339Z,100906.27
2023-04-19T23:26:52.723Z,100909.09
2023-04-19T23:41:55.726Z,100902.27
2023-04-19T23:56:59.743Z,100881.52
